Monroe Regional Airport
KMLU : now visible

Airfield :











YOU CAN JOIN US ON...

 
LOGIN :

Register | Disclaimer

   EN    FR    IT 

 









Legend :    VFR   Marginal VFR   IFR   Intensive IFR   Very Intensive IFR
Visi :
Ceiling :
>= 8 km
>= 3000ft
5 to 8 km
1000 to 3000 ft
1500m to 5 km
500 to 1000 ft
800 to 1500m
200 to 500 ft
< 800m
< 200 ft
Symbols :   Thunderstorms  Fog  Heavy snow  Heavy precipitations  Wind > 20 kt







- Airport Elevation : 79 ft
- IATA code : MLU


KMLU - Monroe Regional

CURRENT METAR :
  • 260153Z 14003KT 10SM OVC070 27/23 A2983 RMK AO2 SLP100 T02720233

EXPIRED METARs :
  • 260053Z 17003KT 10SM SCT038 OVC055 28/23 A2982 RMK AO2 SLP095 T02780233
  • 252353Z 17006KT 10SM FEW034 BKN065 29/23 A2981 RMK AO2 SLP091 60000 T02890233 10306 20283 58013

TAF KMLU
Valid from the 26 at 00:00 until the 27 at 00:00 UTC


252320Z 2600/2624 15005KT P6SM BKN060
FM260500 16004KT 6SM BR OVC015
FM261100 16003KT 4SM BR OVC007
FM261400 19004KT P6SM OVC015
FM261900 VRB06KT P6SM VCTS SCT040CB
No reported NOTAMs for that airfield.



MET'MAP, your aeronautical weather chart ! - Copyright ORBIFLY December 2007 - Disclaimer

ORBIFLY MET'MAP TEAM :

Programming & Development : Alexandra Zaïnal
Concept & Development : Baudouin d'Aumeries
Co-Development & Prog : Marc-Olivier Méhu
Technical & hardware support : Manuel Goepfert

Contact : metmap@orbifly.com




SOURCES & CREDITS :

   NOAA       Earth
Advisory